Time;durP1;ratioP1;P1;durP2;ratioP2;P2;SDS_P1;SDS_P2;PMS_P1;PMS_P2;Temp;Humidity;BMP_temperature;BMP_pressure;BME280_temperature;BME280_humidity;BME280_pressure;Samples;Min_cycle;Max_cycle;Signal;HPM_P1;HPM_P2
2022/09/23 00:01:18;;;;;;;13.32;6.57;;;14.70;99.90;;;;;;5033893;28;20464;-75
2022/09/23 00:03:47;;;;;;;11.40;6.70;;;14.70;99.90;;;;;;5018027;28;20396;-74
2022/09/23 00:06:21;;;;;;;13.13;6.50;;;14.70;99.90;;;;;;5035065;28;20046;-75
2022/09/23 00:08:49;;;;;;;13.93;6.00;;;14.70;99.90;;;;;;5033741;28;20495;-74
2022/09/23 00:11:26;;;;;;;13.07;6.63;;;14.70;99.90;;;;;;5034656;28;20035;-74
2022/09/23 00:13:56;;;;;;;15.75;6.60;;;14.70;99.90;;;;;;5034234;28;20041;-75
2022/09/23 00:16:32;;;;;;;12.13;6.90;;;14.70;99.90;;;;;;5001643;28;20049;-75
2022/09/23 00:19:02;;;;;;;10.45;6.22;;;14.70;99.90;;;;;;5034943;28;20055;-75
2022/09/23 00:21:29;;;;;;;13.25;6.55;;;14.70;99.90;;;;;;5000079;28;20057;-74
2022/09/23 00:23:57;;;;;;;12.25;6.50;;;14.70;99.90;;;;;;5034897;28;20364;-74
2022/09/23 00:26:26;;;;;;;12.90;7.07;;;14.70;99.90;;;;;;5035212;28;20053;-75
2022/09/23 00:28:53;;;;;;;11.18;7.30;;;14.70;99.90;;;;;;5000265;28;20064;-75
2022/09/23 00:31:24;;;;;;;12.23;7.32;;;14.70;99.90;;;;;;5034375;28;20057;-74
2022/09/23 00:33:58;;;;;;;17.10;7.28;;;14.70;99.90;;;;;;5033720;28;20460;-75
2022/09/23 00:36:27;;;;;;;14.85;7.90;;;14.70;99.90;;;;;;5034530;28;20049;-74
2022/09/23 00:38:55;;;;;;;15.30;8.38;;;14.70;99.90;;;;;;5034579;28;20041;-74
2022/09/23 00:41:26;;;;;;;16.77;8.13;;;14.70;99.90;;;;;;5033413;28;20050;-75
2022/09/23 00:43:56;;;;;;;16.20;8.52;;;14.60;99.90;;;;;;5017473;28;20041;-74
2022/09/23 00:46:34;;;;;;;15.35;8.20;;;14.60;99.90;;;;;;5034580;28;20468;-74
2022/09/23 00:49:12;;;;;;;15.02;8.45;;;14.60;99.90;;;;;;5016172;28;20065;-74
2022/09/23 00:51:48;;;;;;;13.85;8.48;;;14.60;99.90;;;;;;5017585;28;20037;-74
2022/09/23 00:54:17;;;;;;;13.40;8.00;;;14.60;99.90;;;;;;5016455;28;20050;-74
2022/09/23 00:56:45;;;;;;;15.68;8.10;;;14.60;99.90;;;;;;5034561;28;20048;-74
2022/09/23 00:59:12;;;;;;;15.88;8.40;;;14.60;99.90;;;;;;5034231;28;20046;-74
2022/09/23 01:01:41;;;;;;;21.40;8.93;;;14.60;99.90;;;;;;5016206;28;20057;-75
2022/09/23 01:04:09;;;;;;;14.02;8.90;;;14.60;99.90;;;;;;5034675;28;20042;-75
2022/09/23 01:06:36;;;;;;;14.82;8.68;;;14.60;99.90;;;;;;5034419;28;20060;-75
2022/09/23 01:09:04;;;;;;;17.00;9.27;;;14.50;99.90;;;;;;5033191;28;20045;-74
2022/09/23 01:11:58;;;;;;;17.33;9.50;;;14.60;99.90;;;;;;5016755;28;20049;-74
2022/09/23 01:14:33;;;;;;;19.65;9.65;;;14.50;99.90;;;;;;5016076;28;20060;-75
2022/09/23 01:17:28;;;;;;;20.67;10.23;;;14.50;99.90;;;;;;5034292;28;20053;-74
2022/09/23 01:20:40;;;;;;;14.68;9.57;;;14.40;99.90;;;;;;5033870;28;20054;-75
2022/09/23 01:23:18;;;;;;;16.83;9.98;;;14.40;99.90;;;;;;4998020;28;20064;-74
2022/09/23 01:26:02;;;;;;;22.48;10.90;;;14.40;99.90;;;;;;5017104;28;20053;-75
2022/09/23 01:28:41;;;;;;;16.77;10.15;;;14.40;99.90;;;;;;5015959;28;20046;-74
2022/09/23 01:31:28;;;;;;;17.65;10.88;;;14.30;99.90;;;;;;5034196;28;20060;-74
2022/09/23 01:34:06;;;;;;;18.42;10.57;;;14.30;99.90;;;;;;5034185;28;20130;-75
2022/09/23 01:36:52;;;;;;;16.77;10.65;;;14.40;99.90;;;;;;5020389;28;20495;-74
2022/09/23 01:39:40;;;;;;;16.92;10.80;;;14.20;99.90;;;;;;5020673;28;20053;-74
2022/09/23 01:42:31;;;;;;;20.15;10.70;;;14.20;99.90;;;;;;5019238;28;20052;-74
2022/09/23 01:45:16;;;;;;;22.38;11.32;;;14.20;99.90;;;;;;5020446;28;20041;-75
2022/09/23 01:47:53;;;;;;;18.20;11.02;;;14.20;99.90;;;;;;5019688;28;20065;-74
2022/09/23 01:53:19;;;;;;;18.83;11.10;;;14.20;99.90;;;;;;5037339;28;20045;-74
2022/09/23 01:55:51;;;;;;;20.08;10.77;;;14.20;99.90;;;;;;5036063;28;20045;-75
2022/09/23 01:58:36;;;;;;;18.25;9.82;;;14.20;99.90;;;;;;5037439;28;20360;-75
2022/09/23 02:01:06;;;;;;;18.05;10.88;;;14.20;99.90;;;;;;5036109;28;20057;-74
2022/09/23 02:03:49;;;;;;;15.85;10.23;;;14.20;99.90;;;;;;5037006;28;20053;-75
2022/09/23 02:06:28;;;;;;;15.23;10.75;;;14.30;99.90;;;;;;5037505;28;20049;-75
2022/09/23 02:09:04;;;;;;;17.65;10.40;;;14.30;99.90;;;;;;5035922;28;20046;-74
2022/09/23 02:11:36;;;;;;;17.48;9.68;;;14.30;99.90;;;;;;5036953;28;20038;-74
2022/09/23 02:14:04;;;;;;;16.38;9.70;;;14.30;99.90;;;;;;5018622;28;20041;-75
2022/09/23 02:16:38;;;;;;;17.80;10.65;;;14.30;99.90;;;;;;5036916;28;20037;-74
2022/09/23 02:19:13;;;;;;;17.45;10.80;;;14.30;99.90;;;;;;5036837;28;20048;-75
2022/09/23 02:21:54;;;;;;;21.15;11.00;;;14.30;99.90;;;;;;5035830;28;20486;-74
2022/09/23 02:24:29;;;;;;;18.30;10.57;;;14.40;99.90;;;;;;5036805;28;20054;-75
2022/09/23 02:27:12;;;;;;;20.88;11.55;;;14.40;99.90;;;;;;5019953;28;20049;-74
2022/09/23 02:29:48;;;;;;;19.58;11.73;;;14.40;99.90;;;;;;5019398;28;20049;-74
2022/09/23 02:32:24;;;;;;;19.75;10.50;;;14.40;99.90;;;;;;5036679;28;20052;-75
2022/09/23 02:35:07;;;;;;;19.95;10.18;;;14.40;99.90;;;;;;5018154;28;20048;-74
2022/09/23 02:37:53;;;;;;;15.73;10.40;;;14.40;99.90;;;;;;5019611;28;20049;-74
2022/09/23 02:40:37;;;;;;;19.63;11.30;;;14.40;99.90;;;;;;5036678;28;20368;-75
2022/09/23 02:43:28;;;;;;;17.92;10.93;;;14.40;99.90;;;;;;5036238;28;20372;-74
2022/09/23 02:45:56;;;;;;;18.83;10.65;;;14.40;99.90;;;;;;5035891;28;20046;-74
2022/09/23 02:48:55;;;;;;;20.00;10.85;;;14.40;99.90;;;;;;5001933;28;20472;-75
2022/09/23 02:51:24;;;;;;;21.33;10.98;;;14.40;99.90;;;;;;5018796;28;20061;-74
2022/09/23 02:53:55;;;;;;;18.75;10.45;;;14.40;99.90;;;;;;5035137;28;20115;-75
2022/09/23 02:56:23;;;;;;;15.77;10.07;;;14.40;99.90;;;;;;5036136;28;20046;-73
2022/09/23 02:58:52;;;;;;;19.20;10.52;;;14.40;99.90;;;;;;5036154;28;20365;-74
2022/09/23 03:02:04;;;;;;;17.70;11.10;;;14.50;99.90;;;;;;5034769;28;20049;-74
2022/09/23 03:04:42;;;;;;;20.30;11.13;;;14.40;99.90;;;;;;5036273;28;20464;-75
2022/09/23 03:07:13;;;;;;;17.15;9.30;;;14.50;99.90;;;;;;5017702;28;20046;-75
2022/09/23 03:10:24;;;;;;;20.30;11.07;;;14.50;99.90;;;;;;5036185;28;20041;-74
2022/09/23 03:13:18;;;;;;;17.60;11.02;;;14.50;99.90;;;;;;5004179;28;20057;-74
2022/09/23 03:15:56;;;;;;;16.35;10.93;;;14.40;99.90;;;;;;5017605;28;20045;-74
2022/09/23 03:18:30;;;;;;;;;;;14.50;99.90;;;;;;5036054;28;20056;-74
2022/09/23 03:21:02;;;;;;;19.83;11.90;;;14.40;99.90;;;;;;5017792;28;19921;-74
2022/09/23 03:23:36;;;;;;;24.27;11.32;;;14.40;99.90;;;;;;5035770;28;20056;-75
2022/09/23 03:26:11;;;;;;;24.45;11.07;;;14.40;99.90;;;;;;5036024;28;20472;-74
2022/09/23 03:28:42;;;;;;;16.83;11.15;;;14.40;99.90;;;;;;5034479;28;20041;-75
2022/09/23 03:31:12;;;;;;;20.08;11.60;;;14.30;99.90;;;;;;5035207;28;20045;-74
2022/09/23 03:34:02;;;;;;;24.80;11.65;;;14.30;99.90;;;;;;5002505;28;20041;-75
2022/09/23 03:36:59;;;;;;;20.25;10.60;;;14.30;99.90;;;;;;5035397;28;20048;-75
2022/09/23 03:39:40;;;;;;;21.23;11.20;;;14.40;99.90;;;;;;5001793;28;20045;-74
2022/09/23 03:42:22;;;;;;;20.95;11.90;;;14.40;99.90;;;;;;5034351;28;20064;-74
2022/09/23 03:44:53;;;;;;;15.80;10.05;;;14.30;99.90;;;;;;5018033;28;20049;-74
2022/09/23 03:47:21;;;;;;;20.55;12.48;;;14.30;99.90;;;;;;5000853;28;20053;-74
2022/09/23 03:49:49;;;;;;;24.23;12.90;;;14.30;99.90;;;;;;5017836;28;20057;-75
2022/09/23 03:52:18;;;;;;;21.77;11.73;;;13.90;99.90;;;;;;5034926;28;20045;-75
2022/09/23 03:54:46;;;;;;;20.67;12.13;;;;;;;;;;5034043;28;20056;-75
2022/09/23 03:57:16;;;;;;;18.92;12.18;;;;;;;;;;5034587;28;20048;-75
2022/09/23 03:59:44;;;;;;;15.98;11.35;;;14.30;99.90;;;;;;5035265;28;20053;-74
2022/09/23 04:02:11;;;;;;;21.73;12.65;;;14.30;99.90;;;;;;5033847;28;20372;-74
2022/09/23 04:04:39;;;;;;;22.85;12.73;;;14.30;99.90;;;;;;5035063;28;20064;-75
2022/09/23 04:07:07;;;;;;;;;;;14.20;99.90;;;;;;5034303;28;20364;-74
2022/09/23 04:09:35;;;;;;;19.98;11.05;;;14.20;99.90;;;;;;5034906;28;19925;-75
2022/09/23 04:12:03;;;;;;;19.92;11.50;;;14.10;99.90;;;;;;5034865;28;20041;-74
2022/09/23 04:14:31;;;;;;;19.73;12.02;;;;;;;;;;5033729;28;20042;-74
2022/09/23 04:16:58;;;;;;;20.13;11.77;;;14.10;99.90;;;;;;5034871;28;20041;-74
2022/09/23 04:19:26;;;;;;;21.77;12.13;;;14.10;99.90;;;;;;5001505;28;20050;-74
2022/09/23 04:21:53;;;;;;;21.70;12.35;;;14.10;99.90;;;;;;5033800;28;20372;-75
2022/09/23 04:24:21;;;;;;;20.73;11.90;;;14.00;99.90;;;;;;5034887;28;20048;-74
2022/09/23 04:26:53;;;;;;;16.15;11.57;;;14.00;99.90;;;;;;5034613;28;20053;-74
2022/09/23 04:29:22;;;;;;;15.82;11.10;;;14.00;99.90;;;;;;4999863;28;20060;-75
2022/09/23 04:31:51;;;;;;;15.82;11.20;;;14.00;99.90;;;;;;5017399;28;20368;-74
2022/09/23 04:34:19;;;;;;;18.92;10.50;;;14.00;99.90;;;;;;5033975;28;20052;-74
2022/09/23 04:36:47;;;;;;;;;;;14.10;99.90;;;;;;5035033;28;20061;-74
2022/09/23 04:39:15;;;;;;;16.60;10.52;;;14.10;99.90;;;;;;5017786;28;19921;-74
2022/09/23 04:41:44;;;;;;;18.35;10.63;;;14.10;99.90;;;;;;5016299;28;20052;-75
2022/09/23 04:44:13;;;;;;;16.38;11.07;;;14.10;99.90;;;;;;5034466;28;20057;-75
2022/09/23 04:46:42;;;;;;;20.27;11.18;;;14.10;99.90;;;;;;5034417;28;20049;-74
2022/09/23 04:49:11;;;;;;;17.38;10.38;;;14.10;99.90;;;;;;5015945;28;20053;-74
2022/09/23 04:51:42;;;;;;;21.17;11.90;;;14.00;99.90;;;;;;5034273;28;20048;-75
2022/09/23 04:54:11;;;;;;;18.30;11.90;;;14.00;99.90;;;;;;5033484;28;20065;-75
2022/09/23 04:56:38;;;;;;;18.85;11.93;;;14.00;99.90;;;;;;5034332;28;20452;-75
2022/09/23 04:59:06;;;;;;;19.27;13.25;;;14.00;99.90;;;;;;5001340;28;20094;-74
2022/09/23 05:01:35;;;;;;;18.45;13.02;;;14.00;99.90;;;;;;4999712;28;20060;-75
2022/09/23 05:04:06;;;;;;;20.85;12.80;;;14.00;99.90;;;;;;5034518;28;20464;-75
2022/09/23 05:06:34;;;;;;;21.77;13.73;;;14.00;99.90;;;;;;5034600;28;20369;-75
2022/09/23 05:09:06;;;;;;;26.60;13.75;;;14.00;99.90;;;;;;5034255;28;20056;-75
2022/09/23 05:11:34;;;;;;;21.67;12.50;;;14.00;99.90;;;;;;5020981;28;20046;-74
2022/09/23 05:14:02;;;;;;;20.10;12.82;;;14.10;99.90;;;;;;5037383;28;20046;-74
2022/09/23 05:16:29;;;;;;;20.27;12.63;;;14.10;99.90;;;;;;5038061;28;20041;-74
2022/09/23 05:18:58;;;;;;;16.52;13.20;;;14.10;99.90;;;;;;5037800;28;20050;-74
2022/09/23 05:21:27;;;;;;;;;;;14.10;99.90;;;;;;5037308;28;20053;-74
2022/09/23 05:23:57;;;;;;;22.75;15.30;;;14.10;99.90;;;;;;5038250;28;19921;-74
2022/09/23 05:26:27;;;;;;;24.50;15.55;;;14.10;99.90;;;;;;5038274;28;20407;-75
2022/09/23 05:28:56;;;;;;;29.00;16.58;;;14.10;99.90;;;;;;5036815;28;20396;-74
2022/09/23 05:31:26;;;;;;;25.48;15.52;;;14.20;99.90;;;;;;5037732;28;20095;-74
2022/09/23 05:33:59;;;;;;;26.55;16.20;;;14.20;99.90;;;;;;5036697;28;20045;-75
2022/09/23 05:36:28;;;;;;;23.40;15.90;;;14.20;99.90;;;;;;5037793;28;20044;-74
2022/09/23 05:39:03;;;;;;;25.58;16.63;;;14.20;99.90;;;;;;5037436;28;20037;-75
2022/09/23 05:41:32;;;;;;;23.08;16.65;;;14.30;99.90;;;;;;5036370;28;20057;-74
2022/09/23 05:44:00;;;;;;;22.55;15.80;;;14.20;99.90;;;;;;5020236;28;20068;-74
2022/09/23 05:46:29;;;;;;;26.13;17.05;;;14.30;99.90;;;;;;5037265;28;20054;-75
2022/09/23 05:48:58;;;;;;;24.17;16.65;;;14.30;99.90;;;;;;5036244;28;20042;-74
2022/09/23 05:51:30;;;;;;;24.38;17.70;;;14.30;99.90;;;;;;5037358;28;20045;-76
2022/09/23 05:54:04;;;;;;;28.98;17.38;;;14.30;99.90;;;;;;5036069;28;20048;-76
2022/09/23 05:56:33;;;;;;;25.48;17.50;;;15.10;99.90;;;;;;5019950;28;20045;-76
2022/09/23 05:59:01;;;;;;;23.35;16.33;;;14.40;99.90;;;;;;5037042;28;20495;-76
2022/09/23 06:01:32;;;;;;;26.95;17.63;;;14.40;99.90;;;;;;5035996;28;20045;-77
2022/09/23 06:04:02;;;;;;;30.77;17.65;;;14.40;99.90;;;;;;5020331;28;20050;-76
2022/09/23 06:06:33;;;;;;;27.35;16.63;;;14.40;99.90;;;;;;5036930;28;20045;-76
2022/09/23 06:09:02;;;;;;;24.73;16.65;;;14.50;99.90;;;;;;5018635;28;20045;-76
2022/09/23 06:11:32;;;;;;;30.10;17.23;;;14.50;99.90;;;;;;5036918;28;20056;-76
2022/09/23 06:14:01;;;;;;;26.92;17.13;;;14.50;99.90;;;;;;5018606;28;20045;-75
2022/09/23 06:16:31;;;;;;;24.40;17.27;;;14.60;99.90;;;;;;5036871;28;20128;-76
2022/09/23 06:19:09;;;;;;;27.40;16.70;;;14.60;99.90;;;;;;5019738;28;20499;-75
2022/09/23 06:21:39;;;;;;;35.28;19.42;;;14.60;99.90;;;;;;5017476;28;20060;-76
2022/09/23 06:24:07;;;;;;;33.97;20.17;;;;;;;;;;5036895;28;20068;-77
2022/09/23 06:26:36;;;;;;;;;;;13.70;99.90;;;;;;5019769;28;20384;-77
2022/09/23 06:29:10;;;;;;;35.85;21.60;;;14.60;99.90;;;;;;5035724;28;19928;-78
2022/09/23 06:31:40;;;;;;;37.85;22.50;;;;;;;;;;5036817;28;20357;-77
2022/09/23 06:34:12;;;;;;;56.10;26.60;;;14.60;99.90;;;;;;5035388;28;20057;-77
2022/09/23 06:36:42;;;;;;;48.92;27.90;;;14.50;99.90;;;;;;5019212;28;20068;-77
2022/09/23 06:39:19;;;;;;;48.22;26.15;;;14.60;99.90;;;;;;5036778;28;20037;-77
2022/09/23 06:41:50;;;;;;;54.00;28.08;;;14.70;99.90;;;;;;5019062;28;20048;-77
2022/09/23 06:44:18;;;;;;;62.47;29.75;;;14.50;99.90;;;;;;5036716;28;20042;-77
2022/09/23 06:46:46;;;;;;;60.28;29.85;;;;;;;;;;5036369;28;20049;-76
2022/09/23 06:49:13;;;;;;;69.45;31.70;;;14.60;99.90;;;;;;5035318;28;20452;-77
2022/09/23 06:51:44;;;;;;;55.00;27.70;;;14.70;99.90;;;;;;5018317;28;20053;-77
2022/09/23 06:54:12;;;;;;;53.90;29.02;;;;;;;;;;5017348;28;20061;-77
2022/09/23 06:56:43;;;;;;;53.60;27.63;;;14.70;99.90;;;;;;5035939;28;20350;-76
2022/09/23 06:59:11;;;;;;;47.17;26.95;;;;;;;;;;5035836;28;20483;-78
2022/09/23 07:01:40;;;;;;;55.10;29.25;;;;;;;;;;5034787;28;20048;-76
2022/09/23 07:04:09;;;;;;;53.78;27.55;;;14.80;99.90;;;;;;5036130;28;20056;-77
2022/09/23 07:06:37;;;;;;;50.88;28.60;;;;;;;;;;5035381;28;20049;-77
2022/09/23 07:09:06;;;;;;;53.55;28.48;;;14.90;99.90;;;;;;5034544;28;20049;-79
2022/09/23 07:11:34;;;;;;;60.35;28.50;;;15.10;99.90;;;;;;5018620;28;20049;-78
2022/09/23 07:14:02;;;;;;;50.58;27.42;;;;;;;;;;5034345;28;20052;-77
2022/09/23 07:16:31;;;;;;;57.70;28.80;;;;;;;;;;5018093;28;20049;-77
2022/09/23 07:18:59;;;;;;;69.28;31.38;;;14.90;99.90;;;;;;5018113;28;20048;-79
2022/09/23 07:21:26;;;;;;;67.57;31.35;;;15.00;99.90;;;;;;5034027;28;20056;-77
2022/09/23 07:23:56;;;;;;;50.40;27.15;;;15.00;99.90;;;;;;5035324;28;20380;-76
2022/09/23 07:26:24;;;;;;;56.30;28.73;;;15.10;99.90;;;;;;5035614;28;20049;-77
2022/09/23 07:29:03;;;;;;;53.85;27.08;;;15.10;99.90;;;;;;5034510;28;20045;-77
2022/09/23 07:31:34;;;;;;;49.80;25.13;;;15.30;99.90;;;;;;5002083;28;20053;-76
2022/09/23 07:34:10;;;;;;;43.58;24.80;;;15.40;99.90;;;;;;5017837;28;20049;-76
2022/09/23 07:36:39;;;;;;;50.72;24.65;;;15.50;99.90;;;;;;5035691;28;20037;-76
2022/09/23 07:39:10;;;;;;;41.67;22.38;;;15.50;99.90;;;;;;5018760;28;20056;-76
2022/09/23 07:41:40;;;;;;;42.58;23.83;;;15.50;99.90;;;;;;5034799;28;20048;-76
2022/09/23 07:44:10;;;;;;;39.35;22.83;;;15.60;99.90;;;;;;5018585;28;20057;-77
2022/09/23 07:46:38;;;;;;;39.13;22.20;;;15.50;99.90;;;;;;5018574;28;20479;-76
2022/09/23 07:49:07;;;;;;;47.83;23.48;;;;;;;;;;5035109;28;20045;-77
2022/09/23 07:51:37;;;;;;;39.38;22.42;;;15.50;99.90;;;;;;5035296;28;20054;-75
2022/09/23 07:54:08;;;;;;;38.95;21.60;;;16.00;99.90;;;;;;5034274;28;20045;-76
2022/09/23 07:56:37;;;;;;;42.45;22.42;;;15.50;99.90;;;;;;5034666;28;20041;-76
2022/09/23 07:59:07;;;;;;;40.38;22.30;;;15.60;99.90;;;;;;5018260;28;20042;-76
2022/09/23 08:01:42;;;;;;;39.97;22.15;;;15.60;99.90;;;;;;5034091;28;20053;-76
2022/09/23 08:04:18;;;;;;;40.50;23.70;;;15.60;99.90;;;;;;5035585;28;20431;-76
2022/09/23 08:06:52;;;;;;;45.20;23.25;;;15.60;99.90;;;;;;5035013;28;20057;-76
2022/09/23 08:09:23;;;;;;;48.65;23.83;;;15.50;99.90;;;;;;5016365;28;20060;-76
2022/09/23 08:11:51;;;;;;;46.97;24.35;;;15.50;99.90;;;;;;5017769;28;20045;-75
2022/09/23 08:14:19;;;;;;;46.45;24.25;;;15.50;99.90;;;;;;5016415;28;20337;-76
2022/09/23 08:16:47;;;;;;;40.50;23.70;;;15.60;99.90;;;;;;5017691;28;20048;-76
2022/09/23 08:19:18;;;;;;;31.65;18.45;;;15.60;99.90;;;;;;5034687;28;20049;-76
2022/09/23 08:21:46;;;;;;;32.95;18.80;;;15.40;99.90;;;;;;5033900;28;20364;-76
2022/09/23 08:24:16;;;;;;;27.10;15.57;;;15.70;99.90;;;;;;5034998;28;20049;-76
2022/09/23 08:26:45;;;;;;;24.08;14.52;;;15.70;99.90;;;;;;5034851;28;20056;-76
2022/09/23 08:29:15;;;;;;;27.42;14.93;;;15.80;99.90;;;;;;5033585;28;20045;-75
2022/09/23 08:31:43;;;;;;;26.27;17.17;;;;;;;;;;5034525;28;20056;-77
2022/09/23 08:34:12;;;;;;;19.30;12.05;;;15.80;99.90;;;;;;5016816;28;20048;-75
2022/09/23 08:36:39;;;;;;;19.13;12.27;;;15.90;99.90;;;;;;5034709;28;20061;-76
2022/09/23 08:39:11;;;;;;;21.75;12.23;;;15.90;99.90;;;;;;5017113;28;20064;-75
2022/09/23 08:42:09;;;;;;;24.35;13.65;;;19.00;99.90;;;;;;5033354;28;20048;-75
2022/09/23 08:44:42;;;;;;;21.63;13.38;;;15.80;99.90;;;;;;5019890;28;20064;-75
2022/09/23 08:47:18;;;;;;;21.63;13.80;;;15.80;99.90;;;;;;5020373;28;20050;-76
2022/09/23 08:49:58;;;;;;;25.00;14.25;;;15.90;99.90;;;;;;5038563;28;20057;-75
2022/09/23 08:52:42;;;;;;;22.60;13.85;;;15.90;99.90;;;;;;5021578;28;20491;-75
2022/09/23 08:55:12;;;;;;;22.90;13.80;;;15.90;99.90;;;;;;5037134;28;20048;-76
2022/09/23 08:58:05;;;;;;;20.52;13.70;;;16.00;99.90;;;;;;5038705;28;20061;-75
2022/09/23 09:00:52;;;;;;;20.25;12.95;;;16.10;99.90;;;;;;5022830;28;20353;-75
2022/09/23 09:03:28;;;;;;;23.08;16.00;;;16.30;99.90;;;;;;5038118;28;20056;-75
2022/09/23 09:05:56;;;;;;;19.77;13.48;;;16.30;99.90;;;;;;5021115;28;20041;-75
2022/09/23 09:08:36;;;;;;;19.85;13.30;;;16.40;99.90;;;;;;5037162;28;20064;-74
2022/09/23 09:11:04;;;;;;;20.73;15.00;;;16.40;99.90;;;;;;5038577;28;20360;-76
2022/09/23 09:13:42;;;;;;;20.95;15.30;;;16.30;99.90;;;;;;5038347;28;20050;-76
2022/09/23 09:16:19;;;;;;;22.88;15.00;;;16.30;99.90;;;;;;5037265;28;20453;-75
2022/09/23 09:19:29;;;;;;;22.95;14.70;;;16.20;99.90;;;;;;5037856;28;20060;-74
2022/09/23 09:21:57;;;;;;;25.25;16.20;;;16.20;99.90;;;;;;5037125;28;20041;-75
2022/09/23 09:24:32;;;;;;;24.52;16.80;;;16.20;99.90;;;;;;5038344;28;20487;-76
2022/09/23 09:27:07;;;;;;;26.60;18.40;;;16.30;99.90;;;;;;5020895;28;20042;-75
2022/09/23 09:29:54;;;;;;;21.38;16.77;;;16.30;99.90;;;;;;5038314;28;20380;-75
2022/09/23 09:32:42;;;;;;;22.00;16.10;;;16.40;99.90;;;;;;5020872;28;20380;-74
2022/09/23 09:35:38;;;;;;;23.65;17.42;;;16.40;99.90;;;;;;5003005;28;20045;-74
2022/09/23 09:38:06;;;;;;;22.75;15.75;;;16.50;99.90;;;;;;5037517;28;20061;-75
2022/09/23 09:40:46;;;;;;;20.08;14.95;;;16.60;99.90;;;;;;5036814;28;20053;-76
2022/09/23 09:43:24;;;;;;;21.98;16.90;;;16.70;99.90;;;;;;5037554;28;20048;-76
2022/09/23 09:46:01;;;;;;;;;;;16.80;99.90;;;;;;5020906;28;20472;-75
2022/09/23 09:48:52;;;;;;;21.85;16.75;;;17.00;99.90;;;;;;5036562;28;19921;-76
2022/09/23 09:51:22;;;;;;;18.55;14.68;;;17.10;99.90;;;;;;5020455;28;20380;-75
2022/09/23 09:53:53;;;;;;;19.58;15.02;;;17.20;99.90;;;;;;5036315;28;20068;-75
2022/09/23 09:56:30;;;;;;;20.25;15.63;;;17.30;99.90;;;;;;5037228;28;20045;-74
2022/09/23 09:59:11;;;;;;;24.23;17.80;;;17.40;99.90;;;;;;5020061;28;20495;-76
2022/09/23 10:01:39;;;;;;;28.17;20.45;;;15.30;99.90;;;;;;5018905;28;20057;-76
2022/09/23 10:04:32;;;;;;;32.65;23.65;;;17.20;99.90;;;;;;5037456;28;20337;-77
2022/09/23 10:07:03;;;;;;;37.25;24.58;;;17.10;99.90;;;;;;5037149;28;20045;-77
2022/09/23 10:09:34;;;;;;;48.97;29.50;;;16.60;99.90;;;;;;5002645;28;20045;-77
2022/09/23 10:12:10;;;;;;;49.53;30.88;;;16.30;99.90;;;;;;5019871;28;20460;-77
2022/09/23 10:14:37;;;;;;;56.20;32.38;;;16.30;99.90;;;;;;5018876;28;20376;-77
2022/09/23 10:17:07;;;;;;;51.38;32.40;;;16.40;99.90;;;;;;5036773;28;20041;-77
2022/09/23 10:19:37;;;;;;;51.72;32.58;;;16.20;99.90;;;;;;5003368;28;20054;-77
2022/09/23 10:22:20;;;;;;;53.63;31.90;;;16.10;99.90;;;;;;5018423;28;20056;-77
2022/09/23 10:24:49;;;;;;;49.42;32.22;;;16.10;99.90;;;;;;5036899;28;20045;-76
2022/09/23 10:27:30;;;;;;;53.65;33.20;;;16.10;99.90;;;;;;5018325;28;20472;-76
2022/09/23 10:30:03;;;;;;;51.67;34.03;;;16.10;99.90;;;;;;5036835;28;20049;-76
2022/09/23 10:32:37;;;;;;;47.33;32.42;;;16.10;99.90;;;;;;5019819;28;20487;-75
2022/09/23 10:35:13;;;;;;;47.70;31.88;;;16.20;99.90;;;;;;5036012;28;20049;-76
2022/09/23 10:37:47;;;;;;;48.67;32.05;;;16.20;99.90;;;;;;5036564;28;20364;-76
2022/09/23 10:49:24;;;;;;;61.03;37.67;;;16.20;99.90;;;;;;5035313;28;20480;-76
2022/09/23 10:52:26;;;;;;;52.60;35.58;;;16.20;99.90;;;;;;5036538;28;20058;-74
2022/09/23 10:55:13;;;;;;;48.42;34.28;;;16.40;99.90;;;;;;5017403;28;20050;-75
2022/09/23 10:57:44;;;;;;;49.67;34.05;;;16.30;99.90;;;;;;5003026;28;20041;-75
2022/09/23 11:00:36;;;;;;;42.33;32.63;;;16.30;99.90;;;;;;5036295;28;20048;-75
2022/09/23 11:03:23;;;;;;;47.83;34.72;;;16.30;99.90;;;;;;5036054;28;20049;-75
2022/09/23 11:06:21;;;;;;;42.30;30.08;;;16.30;99.90;;;;;;5019062;28;20376;-74
2022/09/23 11:09:03;;;;;;;37.47;28.38;;;16.30;99.90;;;;;;5035004;28;20057;-75
2022/09/23 11:11:47;;;;;;;39.75;28.27;;;16.30;99.90;;;;;;5035701;28;20053;-76
2022/09/23 11:14:50;;;;;;;35.83;26.88;;;16.30;99.90;;;;;;5034793;28;20372;-75
2022/09/23 11:17:40;;;;;;;30.90;23.75;;;16.30;99.90;;;;;;5018520;28;20053;-75
2022/09/23 11:20:29;;;;;;;33.83;26.60;;;16.30;99.90;;;;;;5035903;28;20056;-76
2022/09/23 11:23:26;;;;;;;34.42;25.17;;;16.40;99.90;;;;;;5018595;28;20045;-75
2022/09/23 11:26:06;;;;;;;33.20;23.90;;;16.60;99.90;;;;;;5018432;28;20464;-74
2022/09/23 11:28:42;;;;;;;32.17;22.73;;;16.70;99.90;;;;;;5034517;28;20054;-75
2022/09/23 11:31:21;;;;;;;25.55;20.73;;;16.90;99.90;;;;;;5018495;28;20052;-74
2022/09/23 11:34:14;;;;;;;33.25;23.77;;;17.00;99.90;;;;;;5034941;28;20053;-75
2022/09/23 11:37:04;;;;;;;28.60;20.48;;;17.10;99.90;;;;;;5035717;28;20064;-75
2022/09/23 11:39:41;;;;;;;26.55;20.48;;;17.20;99.90;;;;;;5035795;28;20456;-75
2022/09/23 11:42:32;;;;;;;27.30;19.33;;;17.40;99.90;;;;;;5034346;28;20041;-75
2022/09/23 11:45:24;;;;;;;23.73;17.10;;;17.70;99.90;;;;;;5018501;28;20049;-75
2022/09/23 11:48:15;;;;;;;24.95;18.63;;;18.00;99.90;;;;;;5034225;28;20045;-75
2022/09/23 11:50:54;;;;;;;18.48;15.30;;;18.30;99.90;;;;;;5017647;28;20064;-75
2022/09/23 11:53:41;;;;;;;15.02;12.00;;;18.70;99.90;;;;;;5035512;28;20052;-75
2022/09/23 11:56:46;;;;;;;15.68;12.55;;;18.80;99.90;;;;;;5033719;28;20045;-76
2022/09/23 11:59:30;;;;;;;13.05;10.52;;;18.80;99.90;;;;;;4986876;28;20380;-75
2022/09/23 12:02:19;;;;;;;12.48;10.82;;;18.80;99.90;;;;;;5033418;28;20061;-74
2022/09/23 12:05:21;;;;;;;12.82;10.18;;;18.90;99.90;;;;;;5018229;28;20053;-77
2022/09/23 12:07:58;;;;;;;13.23;9.73;;;18.90;99.90;;;;;;5015745;28;20065;-75
2022/09/23 12:10:49;;;;;;;13.02;10.00;;;18.80;99.90;;;;;;5001464;28;20049;-75
2022/09/23 12:13:33;;;;;;;12.20;10.63;;;18.60;99.90;;;;;;5034756;28;20057;-75
2022/09/23 12:16:28;;;;;;;12.75;9.98;;;18.50;99.90;;;;;;5016251;28;20045;-73
2022/09/23 12:19:17;;;;;;;11.80;9.25;;;18.30;99.90;;;;;;5033846;28;20068;-73
2022/09/23 12:21:46;;;;;;;14.15;9.50;;;18.20;99.90;;;;;;5000370;28;20052;-74
2022/09/23 12:24:23;;;;;;;14.52;10.13;;;18.00;99.90;;;;;;5034505;28;20045;-76
2022/09/23 12:26:56;;;;;;;10.65;7.30;;;17.90;99.90;;;;;;5034426;28;20468;-75
2022/09/23 12:29:27;;;;;;;9.98;6.70;;;17.80;99.90;;;;;;5033558;28;20046;-73
2022/09/23 12:32:01;;;;;;;8.48;6.57;;;17.70;99.90;;;;;;5017608;28;20064;-73
2022/09/23 12:34:46;;;;;;;9.55;6.75;;;17.70;99.90;;;;;;5033194;28;20368;-74
2022/09/23 12:37:22;;;;;;;8.40;6.55;;;17.60;99.90;;;;;;5034226;28;20046;-76
2022/09/23 12:39:50;;;;;;;12.50;7.47;;;17.60;99.90;;;;;;5034247;28;20487;-74
2022/09/23 12:42:20;;;;;;;10.15;7.40;;;17.70;99.90;;;;;;4999680;28;20049;-76
2022/09/23 12:44:49;;;;;;;10.93;7.38;;;17.80;99.90;;;;;;5017067;28;20052;-75
2022/09/23 12:47:20;;;;;;;10.05;7.32;;;20.80;99.90;;;;;;5015340;28;20065;-75
2022/09/23 12:49:49;;;;;;;8.80;6.88;;;;;;;;;;5017131;28;20053;-74
2022/09/23 12:52:17;;;;;;;10.57;7.75;;;18.40;99.90;;;;;;5016854;28;20053;-75
2022/09/23 12:54:49;;;;;;;11.93;8.55;;;18.50;99.90;;;;;;5032913;28;20373;-74
2022/09/23 12:57:35;;;;;;;10.50;7.63;;;18.60;99.90;;;;;;5017499;28;20052;-74
2022/09/23 13:00:17;;;;;;;10.93;7.78;;;18.70;99.90;;;;;;5034567;28;20054;-73
2022/09/23 13:06:37;;;;;;;11.90;7.70;;;18.60;99.90;;;;;;5033220;28;20052;-73
2022/09/23 13:08:55;;;;;;;11.25;7.97;;;18.30;99.90;;;;;;5037035;28;20044;-74
2022/09/23 13:11:28;;;;;;;10.00;7.10;;;18.30;99.90;;;;;;5016808;28;20472;-72
2022/09/23 13:13:59;;;;;;;9.63;7.10;;;18.30;99.90;;;;;;5047582;28;20061;-75
2022/09/23 13:16:38;;;;;;;10.45;7.38;;;18.20;99.90;;;;;;5036805;28;20044;-72
2022/09/23 13:19:28;;;;;;;10.73;8.30;;;18.10;99.90;;;;;;5054038;28;20171;-71
2022/09/23 13:22:06;;;;;;;9.50;7.32;;;19.60;99.90;;;;;;5035616;28;20052;-73
2022/09/23 13:24:44;;;;;;;12.63;7.30;;;19.80;99.90;;;;;;5047507;28;20045;-73
2022/09/23 13:27:34;;;;;;;10.88;7.20;;;18.20;99.90;;;;;;5041166;28;20080;-74
2022/09/23 13:30:18;;;;;;;8.93;6.95;;;18.20;99.90;;;;;;5041976;28;20049;-75
2022/09/23 13:33:02;;;;;;;8.82;5.22;;;18.20;99.90;;;;;;5032925;28;20044;-72